createdAt,value
2023-03-12T00:02:19.392Z,101095.28
2023-03-12T00:04:46.976Z,101095.38
2023-03-12T00:07:14.625Z,101085.88
2023-03-12T00:09:42.238Z,101085.13
2023-03-12T00:12:10.114Z,101093.06
2023-03-12T00:14:37.900Z,101080.84
2023-03-12T00:17:05.493Z,101084.25
2023-03-12T00:19:33.084Z,101083.34
2023-03-12T00:22:00.579Z,101077.28
2023-03-12T00:24:28.074Z,101082.28
2023-03-12T00:26:55.619Z,101075.19
2023-03-12T00:29:23.198Z,101076.88
2023-03-12T00:31:51.791Z,101082.22
2023-03-12T00:34:19.489Z,101088.41
2023-03-12T00:36:47.096Z,101086.56
2023-03-12T00:39:14.724Z,101080.72
2023-03-12T00:41:42.327Z,101066.78
2023-03-12T00:44:09.952Z,101077.38
2023-03-12T00:46:37.496Z,101082.44
2023-03-12T00:49:05.019Z,101073.47
2023-03-12T00:51:32.553Z,101066.72
2023-03-12T00:54:00.123Z,101061.53
2023-03-12T00:56:27.715Z,101056.31
2023-03-12T00:58:55.265Z,101052.75
2023-03-12T01:01:22.866Z,101044.94
2023-03-12T01:03:52.155Z,101045.94
2023-03-12T01:06:20.226Z,101041.88
2023-03-12T01:08:47.828Z,101039.31
2023-03-12T01:11:21.290Z,101031.38
2023-03-12T01:13:49.858Z,101039.91
2023-03-12T01:16:17.413Z,101046.16
2023-03-12T01:18:45.013Z,101050.69
2023-03-12T01:21:14.648Z,101029.25
2023-03-12T01:23:42.205Z,101049.97
2023-03-12T01:26:09.706Z,101042.19
2023-03-12T01:28:37.213Z,101048.25
2023-03-12T01:31:12.732Z,101039.72
2023-03-12T01:33:40.604Z,101049.28
2023-03-12T01:36:21.517Z,101049.25
2023-03-12T01:38:49.191Z,101044.72
2023-03-12T01:41:16.855Z,101037.28
2023-03-12T01:43:44.448Z,101036.28
2023-03-12T01:46:28.942Z,101031.06
2023-03-12T01:48:59.166Z,101032.06
2023-03-12T01:51:29.186Z,101029.69
2023-03-12T01:54:00.811Z,101022.09
2023-03-12T01:56:33.332Z,101027.97
2023-03-12T01:59:07.391Z,101022.78
2023-03-12T02:01:35.356Z,101015.09
2023-03-12T02:04:03.173Z,101020.38
2023-03-12T02:06:39.871Z,101006.63
2023-03-12T02:09:08.765Z,101005.72
2023-03-12T02:11:36.565Z,101001.56
2023-03-12T02:14:04.226Z,101000.56
2023-03-12T02:16:32.067Z,100988.50
2023-03-12T02:19:02.785Z,100997.31
2023-03-12T02:21:35.250Z,100989.97
2023-03-12T02:24:30.235Z,100988.53
2023-03-12T02:26:58.168Z,100978.13
2023-03-12T02:29:28.867Z,100969.88
2023-03-12T02:31:58.799Z,100959.72
2023-03-12T02:34:26.332Z,100955.06
2023-03-12T02:36:53.794Z,100946.72
2023-03-12T02:39:21.360Z,100945.53
2023-03-12T02:41:55.212Z,100950.84
2023-03-12T02:44:29.487Z,100946.38
2023-03-12T02:46:59.868Z,100940.38
2023-03-12T02:49:31.860Z,100940.69
2023-03-12T02:51:59.532Z,100938.72
2023-03-12T02:54:27.738Z,100931.78
2023-03-12T02:56:55.934Z,100933.34
2023-03-12T02:59:26.612Z,100917.69
2023-03-12T03:01:59.830Z,100927.28
2023-03-12T03:04:28.442Z,100917.94
2023-03-12T03:06:56.498Z,100926.56
2023-03-12T03:09:25.233Z,100911.06
2023-03-12T03:11:53.100Z,100911.16
2023-03-12T03:14:20.846Z,100912.84
2023-03-12T03:16:48.360Z,100895.69
2023-03-12T03:19:16.039Z,100891.97
2023-03-12T03:21:43.894Z,100885.97
2023-03-12T03:24:11.448Z,100881.00
2023-03-12T03:26:39.182Z,100894.13
2023-03-12T03:29:06.788Z,100884.63
2023-03-12T03:31:34.374Z,100873.31
2023-03-12T03:34:01.910Z,100868.06
2023-03-12T03:36:29.400Z,100877.63
2023-03-12T03:38:56.927Z,100872.63
2023-03-12T03:41:24.502Z,100867.97
2023-03-12T03:43:52.031Z,100870.50
2023-03-12T03:46:19.645Z,100852.53
2023-03-12T03:48:47.231Z,100854.59
2023-03-12T03:51:14.796Z,100844.19
2023-03-12T03:53:42.400Z,100857.78
2023-03-12T03:56:12.801Z,100857.88
2023-03-12T03:58:40.664Z,100873.34
2023-03-12T04:01:08.704Z,100866.41
2023-03-12T04:03:36.884Z,100858.66
2023-03-12T04:06:07.083Z,100855.44
2023-03-12T04:08:37.076Z,100864.84
2023-03-12T04:11:09.776Z,100849.56
2023-03-12T04:13:37.635Z,100840.78
2023-03-12T04:16:05.661Z,100849.63
2023-03-12T04:18:33.362Z,100838.56
2023-03-12T04:21:00.972Z,100840.22
2023-03-12T04:23:28.639Z,100832.31
2023-03-12T04:25:56.247Z,100837.59
2023-03-12T04:28:23.946Z,100827.34
2023-03-12T04:31:00.208Z,100805.75
2023-03-12T04:33:33.169Z,100819.75
2023-03-12T04:36:00.877Z,100810.25
2023-03-12T04:38:29.283Z,100810.13
2023-03-12T04:41:08.525Z,100798.69
2023-03-12T04:43:36.389Z,100793.88
2023-03-12T04:46:04.662Z,100790.25
2023-03-12T04:48:32.352Z,100783.34
2023-03-12T04:51:00.058Z,100782.50
2023-03-12T04:53:27.854Z,100766.13
2023-03-12T04:55:55.396Z,100758.34
2023-03-12T04:58:23.684Z,100761.75
2023-03-12T05:00:51.662Z,100747.78
2023-03-12T05:03:19.870Z,100742.63
2023-03-12T05:05:47.518Z,100755.41
2023-03-12T05:08:15.080Z,100751.16
2023-03-12T05:10:45.162Z,100747.50
2023-03-12T05:13:15.566Z,100745.94
2023-03-12T05:15:43.398Z,100734.00
2023-03-12T05:18:11.105Z,100727.94
2023-03-12T05:20:38.698Z,100729.81
2023-03-12T05:23:06.440Z,100738.59
2023-03-12T05:25:33.956Z,100734.06
2023-03-12T05:28:01.473Z,100731.66
2023-03-12T05:30:28.960Z,100732.38
2023-03-12T05:32:56.527Z,100720.34
2023-03-12T05:35:24.113Z,100723.94
2023-03-12T05:37:51.840Z,100723.81
2023-03-12T05:40:19.500Z,100724.81
2023-03-12T05:42:46.949Z,100718.72
2023-03-12T05:45:14.460Z,100720.53
2023-03-12T05:47:41.933Z,100729.19
2023-03-12T05:50:11.313Z,100722.31
2023-03-12T05:52:38.875Z,100718.97
2023-03-12T05:55:07.023Z,100724.69
2023-03-12T05:57:34.612Z,100722.91
2023-03-12T06:00:02.156Z,100743.56
2023-03-12T06:02:29.701Z,100730.66
2023-03-12T06:04:58.335Z,100724.06
2023-03-12T06:07:26.025Z,100709.88
2023-03-12T06:09:53.543Z,100720.09
2023-03-12T06:12:21.007Z,100716.63
2023-03-12T06:14:48.611Z,100730.41
2023-03-12T06:17:16.571Z,100720.84
2023-03-12T06:19:44.325Z,100723.59
2023-03-12T06:22:11.944Z,100722.06
2023-03-12T06:24:42.540Z,100721.28
2023-03-12T06:27:10.037Z,100711.63
2023-03-12T06:29:37.515Z,100707.47
2023-03-12T06:32:05.167Z,100701.44
2023-03-12T06:34:32.705Z,100708.38
2023-03-12T06:37:00.557Z,100704.97
2023-03-12T06:39:29.966Z,100694.34
2023-03-12T06:41:57.515Z,100701.25
2023-03-12T06:44:25.266Z,100697.13
2023-03-12T06:46:53.735Z,100694.22
2023-03-12T06:49:21.228Z,100695.97
2023-03-12T06:51:48.992Z,100694.41
2023-03-12T06:54:16.814Z,100689.84
2023-03-12T06:56:44.389Z,100679.66
2023-03-12T06:59:11.859Z,100665.91
2023-03-12T07:01:39.348Z,100674.28
2023-03-12T07:04:06.830Z,100666.72
2023-03-12T07:06:34.470Z,100665.19
2023-03-12T07:09:02.132Z,100661.72
2023-03-12T07:11:29.652Z,100656.69
2023-03-12T07:13:57.365Z,100663.41
2023-03-12T07:16:24.894Z,100672.84
2023-03-12T07:18:52.403Z,100668.75
2023-03-12T07:21:22.817Z,100661.81
2023-03-12T07:23:51.168Z,100666.91
2023-03-12T07:26:19.018Z,100679.16
2023-03-12T07:28:46.677Z,100677.41
2023-03-12T07:31:14.267Z,100690.97
2023-03-12T07:33:41.850Z,100693.53
2023-03-12T07:36:09.881Z,100689.53
2023-03-12T07:38:38.172Z,100695.66
2023-03-12T07:41:06.058Z,100698.28
2023-03-12T07:43:33.748Z,100691.34
2023-03-12T07:46:01.338Z,100694.13
2023-03-12T07:48:28.835Z,100690.66
2023-03-12T07:50:56.352Z,100688.13
2023-03-12T07:53:23.903Z,100696.75
2023-03-12T07:55:51.525Z,100693.34
2023-03-12T07:58:19.463Z,100683.16
2023-03-12T08:00:47.785Z,100690.03
2023-03-12T08:03:15.593Z,100691.84
2023-03-12T08:05:43.414Z,100676.41
2023-03-12T08:08:11.195Z,100682.47
2023-03-12T08:10:38.892Z,100678.22
2023-03-12T08:13:06.471Z,100681.69
2023-03-12T08:15:34.904Z,100687.78
2023-03-12T08:18:02.449Z,100683.44
2023-03-12T08:20:30.396Z,100685.06
2023-03-12T08:22:57.916Z,100684.28
2023-03-12T08:25:25.638Z,100680.00
2023-03-12T08:27:53.600Z,100686.97
2023-03-12T08:30:21.963Z,100676.59
2023-03-12T08:32:49.485Z,100690.50
2023-03-12T08:35:17.543Z,100693.00
2023-03-12T08:37:45.092Z,100689.59
2023-03-12T08:40:13.464Z,100683.59
2023-03-12T08:42:42.326Z,100681.91
2023-03-12T08:45:11.629Z,100683.63
2023-03-12T08:47:41.764Z,100687.03
2023-03-12T08:50:11.293Z,100699.19
2023-03-12T08:52:38.915Z,100700.91
2023-03-12T08:55:07.463Z,100693.22
2023-03-12T08:57:35.027Z,100688.84
2023-03-12T09:00:05.327Z,100704.44
2023-03-12T09:02:32.934Z,100700.97
2023-03-12T09:05:00.546Z,100678.53
2023-03-12T09:07:28.082Z,100702.72
2023-03-12T09:09:56.313Z,100703.53
2023-03-12T09:12:24.513Z,100688.78
2023-03-12T09:15:08.507Z,100686.22
2023-03-12T09:17:36.157Z,100676.72
2023-03-12T09:20:06.954Z,100671.56
2023-03-12T09:22:36.779Z,100683.69
2023-03-12T09:25:06.101Z,100681.91
2023-03-12T09:27:41.172Z,100676.56
2023-03-12T09:30:10.886Z,100693.72
2023-03-12T09:32:38.594Z,100662.75
2023-03-12T09:35:08.016Z,100693.81
2023-03-12T09:37:36.313Z,100684.16
2023-03-12T09:40:07.608Z,100688.38
2023-03-12T09:42:47.287Z,100681.38
2023-03-12T09:45:27.357Z,100680.44
2023-03-12T09:47:58.152Z,100689.72
2023-03-12T09:50:34.834Z,100700.13
2023-03-12T09:53:31.832Z,100696.72
2023-03-12T09:56:00.605Z,100704.53
2023-03-12T09:58:35.770Z,100710.25
2023-03-12T10:01:26.268Z,100708.66
2023-03-12T10:04:06.935Z,100700.81
2023-03-12T10:06:47.250Z,100705.16
2023-03-12T10:09:44.983Z,100704.75
2023-03-12T10:12:26.280Z,100710.88
2023-03-12T10:15:18.400Z,100710.41
2023-03-12T10:18:04.269Z,100695.16
2023-03-12T10:20:51.465Z,100701.59
2023-03-12T10:23:35.596Z,100696.56
2023-03-12T10:26:25.605Z,100702.81
2023-03-12T10:29:00.355Z,100694.91
2023-03-12T10:31:37.133Z,100707.75
2023-03-12T10:34:16.661Z,100709.63
2023-03-12T10:36:46.975Z,100705.66
2023-03-12T10:39:20.375Z,100689.94
2023-03-12T10:41:49.711Z,100705.47
2023-03-12T10:44:25.951Z,100686.34
2023-03-12T10:47:07.760Z,100698.19
2023-03-12T10:49:37.937Z,100692.22
2023-03-12T10:52:17.419Z,100691.28
2023-03-12T10:54:47.450Z,100704.19
2023-03-12T10:57:16.553Z,100691.28
2023-03-12T10:59:47.630Z,100702.06
2023-03-12T11:02:30.428Z,100706.25
2023-03-12T11:04:59.750Z,100706.22
2023-03-12T11:07:35.344Z,100700.78
2023-03-12T11:10:08.829Z,100693.97
2023-03-12T11:12:40.149Z,100700.59
2023-03-12T11:15:21.608Z,100705.28
2023-03-12T11:17:49.289Z,100720.91
2023-03-12T11:20:35.047Z,100719.81
2023-03-12T11:23:18.376Z,100721.66
2023-03-12T11:25:53.290Z,100726.00
2023-03-12T11:28:25.736Z,100727.09
2023-03-12T11:30:55.011Z,100722.28
2023-03-12T11:33:22.493Z,100721.50
2023-03-12T11:36:04.938Z,100721.25
2023-03-12T11:38:37.343Z,100720.94
2023-03-12T11:41:23.734Z,100717.38
2023-03-12T11:43:53.922Z,100721.25
2023-03-12T11:46:45.749Z,100707.03
2023-03-12T11:49:46.892Z,100709.13
2023-03-12T11:52:28.756Z,100703.47
2023-03-12T11:55:28.648Z,100696.41
2023-03-12T11:58:01.127Z,100694.50
2023-03-12T12:00:34.382Z,100689.34
2023-03-12T12:03:24.994Z,100694.50
2023-03-12T12:06:18.496Z,100690.03
2023-03-12T12:08:48.880Z,100680.81
2023-03-12T12:11:45.203Z,100686.19
2023-03-12T12:14:31.386Z,100687.72
2023-03-12T12:17:34.558Z,100688.28
2023-03-12T12:20:26.832Z,100676.09
2023-03-12T12:23:43.826Z,100674.78
2023-03-12T12:26:27.997Z,100663.06
2023-03-12T12:29:12.106Z,100664.75
2023-03-12T12:31:51.568Z,100663.41
2023-03-12T12:34:43.170Z,100661.31
2023-03-12T12:37:43.919Z,100665.56
2023-03-12T12:40:37.469Z,100684.41
2023-03-12T12:43:21.324Z,100678.41
2023-03-12T12:45:51.136Z,100663.56
2023-03-12T12:48:34.921Z,100654.44
2023-03-12T12:51:05.213Z,100650.78
2023-03-12T12:54:21.753Z,100646.06
2023-03-12T12:57:04.566Z,100640.59
2023-03-12T12:59:56.272Z,100643.19
2023-03-12T13:02:33.921Z,100634.31
2023-03-12T13:05:02.716Z,100630.44
2023-03-12T13:07:34.181Z,100627.50
2023-03-12T13:10:07.167Z,100623.75
2023-03-12T13:12:48.533Z,100632.72
2023-03-12T13:15:31.391Z,100644.75
2023-03-12T13:18:27.516Z,100639.28
2023-03-12T13:20:55.058Z,100645.00
2023-03-12T13:23:39.896Z,100636.38
2023-03-12T13:26:17.159Z,100640.66
2023-03-12T13:28:56.801Z,100639.75
2023-03-12T13:31:30.672Z,100633.28
2023-03-12T13:34:28.828Z,100642.13
2023-03-12T13:37:02.552Z,100644.50
2023-03-12T13:39:32.152Z,100640.03
2023-03-12T13:42:01.536Z,100643.06
2023-03-12T13:44:29.050Z,100653.78
2023-03-12T13:47:11.659Z,100653.06
2023-03-12T13:49:48.352Z,100646.44
2023-03-12T13:52:42.593Z,100629.53
2023-03-12T13:55:27.598Z,100636.56
2023-03-12T13:58:06.237Z,100643.13
2023-03-12T14:00:38.779Z,100635.56
2023-03-12T14:03:06.252Z,100639.50
2023-03-12T14:05:45.397Z,100636.56
2023-03-12T14:08:29.896Z,100646.84
2023-03-12T14:11:25.168Z,100652.13
2023-03-12T14:14:04.680Z,100651.91
2023-03-12T14:16:42.273Z,100663.88
2023-03-12T14:19:18.399Z,100667.97
2023-03-12T14:21:50.353Z,100665.66
2023-03-12T14:24:28.610Z,100669.03
2023-03-12T14:26:57.989Z,100674.53
2023-03-12T14:29:44.856Z,100688.78
2023-03-12T14:32:20.731Z,100693.41
2023-03-12T14:35:22.155Z,100678.59
2023-03-12T14:37:57.739Z,100682.97
2023-03-12T14:40:36.255Z,100649.75
2023-03-12T14:43:03.907Z,100686.78
2023-03-12T14:45:31.439Z,100690.13
2023-03-12T14:48:07.364Z,100698.06
2023-03-12T14:50:41.446Z,100696.28
2023-03-12T14:53:29.788Z,100698.38
2023-03-12T14:56:15.548Z,100702.69
2023-03-12T14:58:46.432Z,100689.09
2023-03-12T15:01:19.144Z,100682.41
2023-03-12T15:03:54.935Z,100681.13
2023-03-12T15:06:32.663Z,100693.59
2023-03-12T15:09:04.517Z,100679.13
2023-03-12T15:11:34.778Z,100686.56
2023-03-12T15:14:08.041Z,100692.28
2023-03-12T15:16:36.911Z,100670.66
2023-03-12T15:19:05.754Z,100687.63
2023-03-12T15:21:36.150Z,100674.72
2023-03-12T15:24:04.743Z,100689.41
2023-03-12T15:26:38.106Z,100674.28
2023-03-12T15:29:27.378Z,100675.72
2023-03-12T15:31:58.409Z,100661.63
2023-03-12T15:34:32.217Z,100659.84
2023-03-12T15:37:02.094Z,100659.47
2023-03-12T15:39:35.277Z,100665.88
2023-03-12T15:42:09.598Z,100662.06
2023-03-12T15:44:49.425Z,100654.75
2023-03-12T15:47:23.208Z,100652.59
2023-03-12T15:50:04.116Z,100661.44
2023-03-12T15:52:36.471Z,100650.97
2023-03-12T15:55:09.156Z,100652.13
2023-03-12T15:57:46.785Z,100657.72
2023-03-12T16:00:42.195Z,100667.94
2023-03-12T16:03:22.063Z,100643.75
2023-03-12T16:05:51.638Z,100641.94
2023-03-12T16:08:22.451Z,100639.84
2023-03-12T16:10:51.631Z,100644.19
2023-03-12T16:13:21.873Z,100635.19
2023-03-12T16:15:49.879Z,100618.75
2023-03-12T16:18:20.621Z,100631.66
2023-03-12T16:20:49.524Z,100627.00
2023-03-12T16:23:17.874Z,100634.66
2023-03-12T16:25:48.043Z,100634.16
2023-03-12T16:28:18.532Z,100630.81
2023-03-12T16:30:46.411Z,100633.78
2023-03-12T16:33:16.497Z,100626.41
2023-03-12T16:35:44.131Z,100621.78
2023-03-12T16:38:12.466Z,100628.88
2023-03-12T16:40:43.976Z,100629.94
2023-03-12T16:43:23.888Z,100630.19
2023-03-12T16:45:54.048Z,100634.28
2023-03-12T16:48:24.129Z,100625.63
2023-03-12T16:50:57.020Z,100629.97
2023-03-12T16:53:25.570Z,100626.47
2023-03-12T16:55:56.515Z,100635.38
2023-03-12T16:58:25.857Z,100640.53
2023-03-12T17:00:54.945Z,100629.44
2023-03-12T17:03:42.224Z,100641.50
2023-03-12T17:06:16.372Z,100633.28
2023-03-12T17:08:44.134Z,100665.41
2023-03-12T17:11:37.816Z,100653.00
2023-03-12T17:14:16.688Z,100660.06
2023-03-12T17:16:44.219Z,100663.94
2023-03-12T17:19:11.833Z,100641.22
2023-03-12T17:21:39.867Z,100650.34
2023-03-12T17:24:07.786Z,100651.06
2023-03-12T17:26:36.143Z,100637.91
2023-03-12T17:29:03.694Z,100638.50
2023-03-12T17:31:31.232Z,100649.06
2023-03-12T17:33:58.963Z,100642.19
2023-03-12T17:36:26.484Z,100662.03
2023-03-12T17:38:54.623Z,100656.16
2023-03-12T17:41:27.142Z,100661.69
2023-03-12T17:43:58.591Z,100662.19
2023-03-12T17:46:26.223Z,100664.47
2023-03-12T17:48:54.045Z,100665.69
2023-03-12T17:51:21.995Z,100670.16
2023-03-12T17:53:49.561Z,100669.34
2023-03-12T17:56:18.025Z,100671.34
2023-03-12T17:58:46.326Z,100666.97
2023-03-12T18:01:14.523Z,100656.53
2023-03-12T18:03:43.809Z,100665.88
2023-03-12T18:06:12.451Z,100651.19
2023-03-12T18:08:40.044Z,100660.34
2023-03-12T18:11:07.575Z,100653.66
2023-03-12T18:13:35.092Z,100658.78
2023-03-12T18:16:02.703Z,100645.81
2023-03-12T18:18:30.352Z,100656.09
2023-03-12T18:20:57.888Z,100661.88
2023-03-12T18:23:25.825Z,100670.94
2023-03-12T18:25:53.412Z,100655.47
2023-03-12T18:28:20.951Z,100666.22
2023-03-12T18:30:49.515Z,100662.66
2023-03-12T18:33:17.630Z,100666.94
2023-03-12T18:35:45.396Z,100653.91
2023-03-12T18:38:13.381Z,100651.41
2023-03-12T18:40:40.918Z,100653.59
2023-03-12T18:43:08.615Z,100652.31
2023-03-12T18:45:36.273Z,100643.13
2023-03-12T18:48:03.750Z,100654.72
2023-03-12T18:50:31.239Z,100648.28
2023-03-12T18:52:58.945Z,100656.66
2023-03-12T18:55:26.536Z,100648.69
2023-03-12T18:57:54.067Z,100650.84
2023-03-12T19:00:21.752Z,100643.47
2023-03-12T19:02:49.316Z,100644.56
2023-03-12T19:05:17.642Z,100651.72
2023-03-12T19:07:45.345Z,100648.44
2023-03-12T19:10:14.945Z,100647.28
2023-03-12T19:12:52.152Z,100645.44
2023-03-12T19:15:21.303Z,100635.31
2023-03-12T19:17:48.792Z,100641.63
2023-03-12T19:20:16.618Z,100642.38
2023-03-12T19:22:44.153Z,100635.09
2023-03-12T19:25:11.686Z,100628.09
2023-03-12T19:27:39.191Z,100631.94
2023-03-12T19:30:07.398Z,100627.16
2023-03-12T19:32:43.372Z,100621.84
2023-03-12T19:35:13.444Z,100609.31
2023-03-12T19:37:41.476Z,100608.78
2023-03-12T19:40:10.786Z,100619.00
2023-03-12T19:42:38.490Z,100613.69
2023-03-12T19:45:06.488Z,100612.03
2023-03-12T19:47:34.110Z,100607.78
2023-03-12T19:50:01.826Z,100610.25
2023-03-12T19:52:30.029Z,100610.50
2023-03-12T19:55:04.629Z,100604.78
2023-03-12T19:57:33.266Z,100590.63
2023-03-12T20:00:00.842Z,100588.53
2023-03-12T20:02:28.853Z,100588.84
2023-03-12T20:04:56.521Z,100586.78
2023-03-12T20:07:24.068Z,100571.00
2023-03-12T20:09:52.413Z,100575.28
2023-03-12T20:12:20.043Z,100571.63
2023-03-12T20:14:47.836Z,100566.66
2023-03-12T20:17:15.537Z,100561.03
2023-03-12T20:19:43.105Z,100560.34
2023-03-12T20:22:10.790Z,100555.69
2023-03-12T20:24:38.332Z,100545.72
2023-03-12T20:27:05.909Z,100554.72
2023-03-12T20:29:33.475Z,100554.94
2023-03-12T20:32:01.100Z,100539.19
2023-03-12T20:34:28.836Z,100534.16
2023-03-12T20:36:56.364Z,100533.22
2023-03-12T20:39:23.906Z,100535.25
2023-03-12T20:41:51.447Z,100471.38
2023-03-12T20:44:19.404Z,100524.50
2023-03-12T20:46:48.063Z,100511.88
2023-03-12T20:49:16.076Z,100510.78
2023-03-12T20:51:44.711Z,100493.97
2023-03-12T20:54:12.727Z,100511.06
2023-03-12T20:56:43.734Z,100512.41
2023-03-12T20:59:14.241Z,100500.16
2023-03-12T21:01:41.873Z,100498.84
2023-03-12T21:04:09.563Z,100495.94
2023-03-12T21:06:37.102Z,100498.44
2023-03-12T21:09:04.784Z,100488.44
2023-03-12T21:11:32.263Z,100485.03
2023-03-12T21:14:00.031Z,100489.06
2023-03-12T21:16:27.669Z,100474.97
2023-03-12T21:18:59.207Z,100467.88
2023-03-12T21:21:26.779Z,100463.56
2023-03-12T21:23:54.457Z,100462.03
2023-03-12T21:26:22.077Z,100454.53
2023-03-12T21:28:49.660Z,100456.75
2023-03-12T21:31:18.222Z,100442.84
2023-03-12T21:33:45.790Z,100446.91
2023-03-12T21:36:14.969Z,100442.50
2023-03-12T21:38:43.741Z,100429.38
2023-03-12T21:41:13.752Z,100425.56
2023-03-12T21:43:41.781Z,100406.53
2023-03-12T21:46:24.439Z,100410.53
2023-03-12T21:48:52.115Z,100406.72
2023-03-12T21:51:20.160Z,100405.47
2023-03-12T21:53:48.173Z,100391.28
2023-03-12T21:56:15.741Z,100390.09
2023-03-12T21:58:44.217Z,100389.47
2023-03-12T22:01:18.327Z,100380.91
2023-03-12T22:03:47.230Z,100375.84
2023-03-12T22:06:16.399Z,100370.00
2023-03-12T22:08:45.303Z,100368.69
2023-03-12T22:11:12.771Z,100371.53
2023-03-12T22:13:40.322Z,100359.94
2023-03-12T22:16:09.473Z,100359.84
2023-03-12T22:18:44.932Z,100357.72
2023-03-12T22:21:19.609Z,100350.19
2023-03-12T22:23:48.207Z,100345.34
2023-03-12T22:26:16.370Z,100344.72
2023-03-12T22:28:44.033Z,100339.88
2023-03-12T22:31:11.586Z,100336.53
2023-03-12T22:33:39.075Z,100330.91
2023-03-12T22:36:11.743Z,100318.16
2023-03-12T22:38:40.370Z,100320.88
2023-03-12T22:41:13.829Z,100329.63
2023-03-12T22:43:41.599Z,100324.00
2023-03-12T22:46:09.316Z,100319.66
2023-03-12T22:48:37.043Z,100307.75
2023-03-12T22:51:07.534Z,100314.81
2023-03-12T22:53:35.380Z,100304.28
2023-03-12T22:56:09.051Z,100298.81
2023-03-12T22:58:36.967Z,100288.97
2023-03-12T23:01:13.527Z,100301.91
2023-03-12T23:03:43.471Z,100289.53
2023-03-12T23:06:13.090Z,100282.91
2023-03-12T23:08:41.401Z,100279.13
2023-03-12T23:11:10.439Z,100264.19
2023-03-12T23:13:41.283Z,100268.34
2023-03-12T23:16:11.930Z,100246.72
2023-03-12T23:18:39.838Z,100255.16
2023-03-12T23:21:10.001Z,100243.22
2023-03-12T23:23:39.488Z,100227.81
2023-03-12T23:26:07.658Z,100220.78
2023-03-12T23:28:35.160Z,100217.88
2023-03-12T23:31:08.840Z,100206.50
2023-03-12T23:33:37.157Z,100193.97
2023-03-12T23:36:06.690Z,100189.31
2023-03-12T23:38:37.394Z,100179.22
2023-03-12T23:41:05.264Z,100170.41
2023-03-12T23:43:32.970Z,100168.22
2023-03-12T23:46:03.170Z,100156.84
2023-03-12T23:48:32.543Z,100151.41
2023-03-12T23:51:16.841Z,100136.28
2023-03-12T23:53:47.052Z,100131.59
2023-03-12T23:56:17.532Z,100123.56
2023-03-12T23:58:45.745Z,100118.28
